Forecasts are only available for sites displaying the forecast symbol.

Some water levels are actually in metres AHD (Australian Height Datum), click individual sites for more details.

Scroll for more >

River gauges, storages, and weirs in the Murray–Darling Basin

Type Locationsort descending River Water level Flow Volume Release Water temp Salinity Rainfall
River Gauge Albury (Union Bridge) Murray 1.32 m 1/08/2021 1:00 Not measured Not measured Not measured 9.8°C 1/08/2021 1:00 53.2 μS/cm 1/08/2021 1:00 Not measured Full data
River Gauge Balranald Murrumbidgee 5.07 m 1/08/2021 0:45 6929 ML/Day 1/08/2021 0:45 Not measured Not measured 10.6°C 1/08/2021 0:45 134.4 μS/cm 1/08/2021 0:45 Not measured Full data
River Gauge Bandiana Kiewa 2.94 m 1/08/2021 0:45 5958 ML/Day 1/08/2021 0:45 Not measured Not measured 9.8°C 1/08/2021 0:45 51.4 μS/cm 1/08/2021 0:45 Not measured Full data
River Gauge Barmah Choke Murray 3.07 m 1/08/2021 0:45 10012 ML/Day 1/08/2021 0:45 Not measured Not measured Not measured Not measured Not measured Full data
River Gauge Biggara Murray 1.38 m 1/08/2021 0:45 4028 ML/Day 1/08/2021 0:45 Not measured Not measured 9.0°C 1/08/2021 1:00 31.4 μS/cm 1/08/2021 1:00 0.2 mm 30/07/2021 9:00 Full data
River Gauge Bringenbrong Bridge Murray 2.18 m 1/08/2021 0:45 8980 ML/Day 1/08/2021 0:45 Not measured Not measured Not measured Not measured Not measured Full data
River Gauge Burtundy Darling 0.86 m 1/08/2021 0:45 447 ML/Day 1/08/2021 0:45 Not measured Not measured 11.4°C 1/08/2021 0:45 299.3 μS/cm 1/08/2021 0:45 Not measured Full data
River Gauge Colemans Mitta 0.9 m 1/08/2021 0:45 202 ML/Day 1/08/2021 0:45 Not measured Not measured 9.2°C 1/08/2021 0:30 -3.8 μS/cm 1/08/2021 0:45 Not measured Full data
River Gauge Colemans Mitta 0.9 m 1/08/2021 0:45 202 ML/Day 1/08/2021 0:45 Not measured Not measured 9.2°C 1/08/2021 0:30 -3.8 μS/cm 1/08/2021 0:45 Not measured Full data
River Gauge Colignan Murray 3.46 m 1/08/2021 0:45 18605 ML/Day 1/08/2021 0:45 Not measured Not measured 11.1°C 1/08/2021 0:45 103.3 μS/cm 1/08/2021 0:45 Not measured Full data
River Gauge Corowa Murray 1.69 m 1/08/2021 1:00 6563 ML/Day 1/08/2021 1:00 Not measured Not measured 10.4°C 1/08/2021 1:00 72.4 μS/cm 1/08/2021 1:00 Not measured Full data
Storage Dartmouth Dam Mitta 466.29 m 31/07/2021 8:45 Not measured 2693 GL 31/07/2021 8:45 Not measured Not measured Not measured Not measured Full data
Storage Dartmouth Dam Mitta 466.29 m 31/07/2021 8:45 Not measured 2693 GL 31/07/2021 8:45 Not measured Not measured Not measured Not measured Full data
River Gauge Doctors Point Murray 2.27 m 1/08/2021 1:00 6054 ML/Day 1/08/2021 1:00 Not measured Not measured 10.0°C 1/08/2021 1:00 105.7 μS/cm 1/08/2021 1:00 Not measured Full data
River Gauge Echuca Wharf Murray 88.52 m 31/07/2021 23:45 Not measured Not measured Not measured Not measured Not measured Not measured Full data
River Gauge Edward Escape Wakool -1.21 m 1/08/2021 0:45 0.00 ML/Day 2/06/2021 3:00 Not measured Not measured 11.4°C 1/08/2021 0:45 0.00 μS/cm 1/08/2021 0:45 Not measured Full data
River Gauge Edward River Offtake Murray 2.7 m 1/08/2021 0:45 2052 ML/Day 1/08/2021 0:45 Not measured Not measured 10.1°C 1/08/2021 0:45 54.1 μS/cm 1/08/2021 0:45 Not measured Full data
Weirs Euston Weir Downstream Murray 45.04 m 1/08/2021 0:45 19919 ML/Day 1/08/2021 0:45 Not measured Not measured 10.4°C 1/08/2021 0:45 102.4 μS/cm 1/08/2021 0:45 Not measured Full data
Weirs Euston Weir Upstream Murray 47.6 m 31/07/2021 8:45 Not measured 36 GL 30/07/2021 7:45 Not measured Not measured Not measured 145.9 mm 5/03/2020 9:00 Full data
River Gauge Flow to South Australia Murray Not measured Not measured Not measured 8046.0 ML/d30/07/2021 7:45 Not measured Not measured Not measured Full data
River Gauge Frenchman Creek Murray 27.14 m 30/07/2021 7:45 Not measured Not measured 8441.2 ML/d30/07/2021 7:45 Not measured Not measured Not measured Full data
River Gauge Gulpa Creek Offtake Murray 3.23 m 1/08/2021 0:45 939 ML/Day 1/08/2021 0:45 Not measured Not measured Not measured Not measured Not measured Full data
River Gauge Hinnomunjie Mitta 1.34 m 1/08/2021 0:45 2768 ML/Day 1/08/2021 0:45 Not measured Not measured 6.5°C 1/08/2021 0:45 29.7 μS/cm 1/08/2021 0:45 0.2 mm 30/07/2021 9:00 Full data
Storage Hume Dam Murray 189.21 m 1/08/2021 1:00 Not measured 2472 GL 1/08/2021 1:00 600.0 ML/d31/07/2021 8:00 Not measured Not measured 2.4 mm 30/07/2021 9:00 Full data
River Gauge Jingellic Murray 3.15 m 1/08/2021 0:45 18886 ML/Day 1/08/2021 0:45 Not measured Not measured 9.3°C 1/08/2021 0:45 54.0 μS/cm 1/08/2021 0:45 2.0 mm 30/07/2021 9:00 Full data
River Gauge Kerang Loddon 0.45 m 1/08/2021 0:45 370 ML/Day 1/08/2021 0:45 Not measured Not measured 10.9°C 1/08/2021 0:45 150.4 μS/cm 1/08/2021 0:45 Not measured Full data
River Gauge Lake Albert Murray 0.93 m 31/07/2021 5:45 Not measured 283 GL 24/07/2021 5:45 Not measured Not measured Not measured Not measured Full data
River Gauge Lake Alexandrina Murray 0.81 m 31/07/2021 5:45 Not measured 1650 GL 31/07/2021 5:45 Not measured Not measured 710.7 μS/cm 31/07/2021 22:45 Not measured Full data
Storage Lake Victoria Murray 25.89 m 31/07/2021 22:45 Not measured 545 GL 31/07/2021 22:45 Not measured 10.6°C 31/07/2021 22:45 149.0 μS/cm 31/07/2021 22:45 Not measured Full data
Weirs Lock 1 Downstream Murray 0.82 m 31/07/2021 22:45 Not measured Not measured 5866.3 ML/d30/07/2021 7:45 Not measured Not measured Not measured Full data
Weirs Lock 1 Upstream Murray 3.24 m 31/07/2021 22:45 Not measured Not measured Not measured 11.5°C 31/07/2021 21:15 263.2 μS/cm 31/07/2021 21:15 Not measured Full data
Weirs Lock 2 Downstream Murray 3.43 m 31/07/2021 22:45 Not measured Not measured Not measured Not measured Not measured Not measured Full data
Weirs Lock 2 Upstream Murray 6.43 m 31/07/2021 22:45 Not measured Not measured Not measured 11.6°C 31/07/2021 22:45 258.5 μS/cm 31/07/2021 22:45 Not measured Full data
Weirs Lock 3 Downstream Murray 6.63 m 31/07/2021 22:45 Not measured Not measured Not measured Not measured Not measured Not measured Full data
Weirs Lock 3 Upstream Murray 9.86 m 31/07/2021 22:45 Not measured Not measured Not measured Not measured Not measured Not measured Full data
Weirs Lock 4 Downstream Murray 10.6 m 31/07/2021 22:45 Not measured Not measured Not measured Not measured Not measured Not measured Full data
Weirs Lock 4 Upstream Murray 13.4 m 31/07/2021 22:45 Not measured Not measured Not measured Not measured Not measured Not measured Full data
Weirs Lock 5 Downstream Murray 13.58 m 31/07/2021 22:45 Not measured Not measured Not measured Not measured Not measured Not measured Full data
Weirs Lock 5 Upstream Murray 16.45 m 31/07/2021 22:45 Not measured Not measured Not measured 11.4°C 31/07/2021 22:45 158.1 μS/cm 31/07/2021 22:45 Not measured Full data
Weirs Lock 6 Downstream Murray 16.59 m 31/07/2021 22:45 Not measured Not measured Not measured Not measured Not measured Not measured Full data
Weirs Lock 6 Upstream Murray 19.32 m 31/07/2021 22:45 Not measured Not measured Not measured 11.3°C 31/07/2021 22:45 141.3 μS/cm 31/07/2021 22:45 Not measured Full data
Weirs Lock 7 Downstream Murray 20.74 m 31/07/2021 22:45 Not measured Not measured Not measured Not measured Not measured Not measured Full data
Weirs Lock 7 Upstream Murray 22.71 m 31/07/2021 22:45 Not measured Not measured Not measured 11.3°C 31/07/2021 22:45 128.5 μS/cm 31/07/2021 22:45 Not measured Full data
Weirs Lock 8 Upstream Murray 24.61 m 31/07/2021 22:45 Not measured Not measured Not measured 11.1°C 31/07/2021 22:45 133.1 μS/cm 31/07/2021 22:45 Not measured Full data
Weirs Lock 9 Downstream Murray 24.78 m 31/07/2021 22:45 Not measured Not measured Not measured Not measured Not measured Not measured Full data
Weirs Lock 9 Upstream Murray 27.56 m 31/07/2021 22:45 Not measured Not measured Not measured 11.0°C 31/07/2021 22:45 133.2 μS/cm 31/07/2021 22:45 Not measured Full data
River Gauge McCoy Bridge Goulburn 4.83 m 1/08/2021 0:45 8362 ML/Day 1/08/2021 0:45 Not measured Not measured 9.6°C 1/08/2021 0:45 122.6 μS/cm 1/08/2021 0:45 Not measured Full data
Storage Menindee Lakes Darling Not measured Not measured 1157 GL 30/07/2021 7:45 Not measured Not measured Not measured Not measured Full data
Weirs Mildura Weir downstream Murray 31.57 m 1/08/2021 0:45 Not measured Not measured Not measured 10.9°C 1/08/2021 0:45 115.4 μS/cm 1/08/2021 0:45 Not measured Full data
River Gauge Morgan Downstream Murray Not measured Not measured Not measured 5323.7 ML/d31/07/2021 22:45 Not measured 281.5 μS/cm 31/07/2021 20:45 Not measured Full data
River Gauge Mulwala Canal Murray Not measured Not measured Not measured 1199.0 ML/d31/07/2021 8:45 Not measured Not measured Not measured Full data
River Gauge Mundoo Barrage Murray 0.85 m 30/07/2021 7:45 Not measured Not measured Not measured Not measured Not measured Not measured Full data
River Gauge Murray Bridge Murray 0.78 m 31/07/2021 22:45 Not measured Not measured Not measured 11.4°C 31/07/2021 22:45 327.6 μS/cm 31/07/2021 22:45 Not measured Full data
River Gauge Peechelba Ovens 130.66 m 1/08/2021 0:45 28745 ML/Day 1/08/2021 0:45 Not measured Not measured 10.8°C 1/08/2021 0:45 47.7 μS/cm 1/08/2021 0:45 Not measured Full data
River Gauge Pinegrove Murray 2.51 m 1/08/2021 0:45 2939 ML/Day 1/08/2021 0:45 Not measured Not measured 9.3°C 1/08/2021 0:45 55.7 μS/cm 1/08/2021 0:45 3.0 mm 28/07/2021 9:00 Full data
River Gauge Redcliffs Murray Not measured Not measured Not measured Not measured Not measured 122.0 μS/cm 31/07/2021 7:45 Not measured Full data
River Gauge Rochester Campaspe 1.8 m 1/08/2021 0:45 140 ML/Day 1/08/2021 0:45 Not measured Not measured 9.8°C 1/08/2021 0:45 621.0 μS/cm 1/08/2021 0:45 0.8 mm 31/07/2021 9:00 Full data
River Gauge Rufus River Murray 20.57 m 30/07/2021 7:45 Not measured Not measured 711.9 ML/d30/07/2021 7:45 Not measured 171.9 μS/cm 31/07/2021 20:45 Not measured Full data
Weirs Steven's Weir Downstream Edward 2.72 m 1/08/2021 0:45 3241 ML/Day 1/08/2021 0:45 Not measured Not measured 10.5°C 1/08/2021 0:45 46.6 μS/cm 1/08/2021 0:45 Not measured Full data
Weirs Steven's Weir Upstream Edward 4.54 m 1/08/2021 0:45 Not measured Not measured Not measured Not measured Not measured Not measured Full data
River Gauge Stoney Crossing Murray 1.36 m 1/08/2021 0:45 354 ML/Day 1/08/2021 0:45 Not measured 325.6 ML/d31/07/2021 7:45 11.5°C 1/08/2021 0:45 755.8 μS/cm 1/08/2021 0:45 Not measured Full data
River Gauge Swan Hill Murray 2.59 m 1/08/2021 0:45 15140 ML/Day 1/08/2021 0:45 Not measured Not measured 10.2°C 1/08/2021 0:45 84.5 μS/cm 1/08/2021 0:45 Not measured Full data
River Gauge Tallandoon Mitta 2.24 m 1/08/2021 0:45 3323 ML/Day 1/08/2021 0:45 Not measured Not measured 9.4°C 1/08/2021 0:45 33.0 μS/cm 1/08/2021 0:45 Not measured Full data
River Gauge Tallandoon Mitta 2.24 m 1/08/2021 0:45 3323 ML/Day 1/08/2021 0:45 Not measured Not measured 9.4°C 1/08/2021 0:45 33.0 μS/cm 1/08/2021 0:45 Not measured Full data
River Gauge Tauwitchere Barrage Murray 0.84 m 31/07/2021 22:45 Not measured Not measured Not measured Not measured Not measured Not measured Full data
River Gauge Tocumwal Murray 4.08 m 1/08/2021 0:45 26614 ML/Day 1/08/2021 0:45 Not measured Not measured 10.1°C 1/08/2021 0:45 52.0 μS/cm 1/08/2021 0:45 Not measured Full data
River Gauge Torrumbarry Headworks Murray 84.04 m 1/08/2021 0:45 Not measured Not measured 420.3 ML/d1/08/2021 0:45 Not measured Not measured Not measured Full data
Weirs Torrumbarry Weir Downstream Murray 4.85 m 1/08/2021 0:45 17381 ML/Day 1/08/2021 0:45 Not measured Not measured 9.9°C 1/08/2021 0:45 97.2 μS/cm 1/08/2021 0:45 Not measured Full data
Weirs Torrumbarry Weir Upstream Murray 85.77 m 31/07/2021 23:45 Not measured 34 GL 31/07/2021 8:45 Not measured 9.6°C 31/07/2021 8:45 97.9 μS/cm 31/07/2021 22:45 0.00 mm 31/07/2021 9:00 Full data
River Gauge Wakool Canal Wakool 0.76 m 1/08/2021 0:45 Not measured Not measured 998.7 ML/d31/07/2021 8:45 Not measured Not measured Not measured Full data
River Gauge Wakool Junction Murray 4.78 m 1/08/2021 0:45 17173 ML/Day 1/08/2021 0:45 Not measured Not measured 10.2°C 1/08/2021 0:45 87.2 μS/cm 1/08/2021 0:45 Not measured Full data
River Gauge Weir 32 Upstream Darling 1.51 m 1/08/2021 0:45 468 ML/Day 1/08/2021 0:45 Not measured Not measured 11.7°C 1/08/2021 0:45 318.9 μS/cm 1/08/2021 0:45 Not measured Full data
Weirs Wentworth Weir Murray 28.41 m 1/08/2021 0:45 Not measured Not measured 17058.3 ML/d31/07/2021 8:45 Not measured 129.0 μS/cm 30/07/2021 7:45 Not measured Full data
River Gauge Wilcania Darling 4.54 m 1/08/2021 0:45 9609 ML/Day 1/08/2021 0:45 Not measured Not measured 12.1°C 1/08/2021 0:45 319.7 μS/cm 1/08/2021 0:45 Not measured Full data
River Gauge Yarrawonga Main Channel Murray 122.85 m 1/08/2021 0:45 Not measured Not measured 38.0 ML/d1/08/2021 0:45 Not measured Not measured Not measured Full data
Weirs Yarrawonga Weir Downstream Murray 3.52 m 1/08/2021 1:00 28039 ML/Day 1/08/2021 1:00 Not measured Not measured 10.0°C 1/08/2021 1:00 64.3 μS/cm 1/08/2021 1:00 Not measured Full data
Weirs Yarrawonga Weir Upstream Murray 124.66 m 1/08/2021 0:45 Not measured Not measured Not measured Not measured Not measured 1.8 mm 31/07/2021 9:00 Full data